Time;durP1;ratioP1;P1;durP2;ratioP2;P2;SDS_P1;SDS_P2;PMS_P1;PMS_P2;Temp;Humidity;BMP_temperature;BMP_pressure;BME280_temperature;BME280_humidity;BME280_pressure;Samples;Min_cycle;Max_cycle;Signal;HPM_P1;HPM_P2
2023/08/08 00:01:42;;;;;;;3.03;2.30;;;13.60;99.90;;;;;;5069496;28;20112;-51
2023/08/08 00:04:10;;;;;;;4.75;3.35;;;13.60;99.90;;;;;;5069178;28;20366;-54
2023/08/08 00:06:35;;;;;;;6.68;3.05;;;13.60;99.90;;;;;;5069554;28;20052;-55
2023/08/08 00:09:01;;;;;;;5.13;3.15;;;13.60;99.90;;;;;;5068990;28;20036;-55
2023/08/08 00:11:27;;;;;;;4.47;2.72;;;13.60;99.90;;;;;;5069654;28;20083;-55
2023/08/08 00:13:52;;;;;;;9.25;3.15;;;13.60;99.90;;;;;;5069484;28;20051;-56
2023/08/08 00:16:18;;;;;;;5.05;2.60;;;13.60;99.90;;;;;;5069673;28;20031;-54
2023/08/08 00:18:43;;;;;;;5.63;3.10;;;13.60;99.90;;;;;;5069329;28;20032;-55
2023/08/08 00:21:09;;;;;;;5.35;2.80;;;13.60;99.90;;;;;;5069347;28;20036;-54
2023/08/08 00:23:34;;;;;;;9.48;3.25;;;13.60;99.90;;;;;;5069830;28;20076;-53
2023/08/08 00:26:00;;;;;;;8.10;3.03;;;13.60;99.90;;;;;;5069717;28;20033;-57
2023/08/08 00:28:26;;;;;;;3.93;3.10;;;13.60;99.90;;;;;;5069504;28;20120;-56
2023/08/08 00:30:51;;;;;;;3.05;2.63;;;13.60;99.90;;;;;;5069756;28;20676;-51
2023/08/08 00:33:17;;;;;;;6.53;3.10;;;13.60;99.90;;;;;;5069659;28;20075;-57
2023/08/08 00:35:44;;;;;;;3.63;2.53;;;13.60;99.90;;;;;;5069512;28;20382;-55
2023/08/08 00:38:10;;;;;;;6.88;3.53;;;13.70;99.90;;;;;;5069244;28;20032;-56
2023/08/08 00:40:35;;;;;;;3.92;3.42;;;13.70;99.90;;;;;;5070061;28;20093;-54
2023/08/08 00:43:01;;;;;;;7.38;3.55;;;13.70;99.90;;;;;;5069358;28;20520;-54
2023/08/08 00:45:28;;;;;;;4.70;3.30;;;13.80;99.90;;;;;;5064454;28;20521;-53
2023/08/08 00:47:53;;;;;;;4.25;3.22;;;13.80;99.90;;;;;;5068713;28;20041;-57
2023/08/08 00:50:20;;;;;;;3.85;3.35;;;13.80;99.90;;;;;;5069240;28;20094;-56
2023/08/08 00:52:45;;;;;;;;;;;13.80;99.90;;;;;;5070128;28;20032;-52
2023/08/08 00:55:11;;;;;;;10.07;3.33;;;13.80;99.90;;;;;;5069361;28;19943;-55
2023/08/08 00:57:38;;;;;;;10.02;3.33;;;13.80;99.90;;;;;;5069028;28;20097;-56
2023/08/08 01:00:09;;;;;;;;;;;13.90;99.90;;;;;;5070088;28;20062;-55
2023/08/08 01:02:34;;;;;;;4.95;2.58;;;13.90;99.90;;;;;;5069470;28;20006;-56
2023/08/08 01:05:00;;;;;;;8.07;3.72;;;13.90;99.90;;;;;;5068702;28;20136;-55
2023/08/08 01:07:32;;;;;;;5.20;3.55;;;13.90;99.90;;;;;;5069024;28;20059;-54
2023/08/08 01:10:07;;;;;;;5.00;3.53;;;13.90;99.90;;;;;;5068372;28;20094;-54
2023/08/08 01:12:43;;;;;;;8.48;3.78;;;13.90;99.90;;;;;;5069265;28;20409;-56
2023/08/08 01:15:09;;;;;;;7.13;3.33;;;14.00;99.90;;;;;;5068784;28;20052;-53
2023/08/08 01:17:36;;;;;;;8.40;3.97;;;14.00;99.90;;;;;;5068678;28;20068;-55
2023/08/08 01:20:05;;;;;;;7.10;3.33;;;14.00;99.90;;;;;;5068900;28;20028;-54
2023/08/08 01:22:50;;;;;;;4.90;3.47;;;14.00;99.90;;;;;;5068902;28;20037;-56
2023/08/08 01:25:16;;;;;;;3.60;3.33;;;14.00;99.90;;;;;;5068729;28;20036;-54
2023/08/08 01:27:43;;;;;;;7.40;3.25;;;14.00;99.90;;;;;;5068082;28;20047;-53
2023/08/08 01:30:09;;;;;;;7.60;3.33;;;14.00;99.90;;;;;;5068133;28;20501;-54
2023/08/08 01:32:34;;;;;;;9.68;3.85;;;14.00;99.90;;;;;;5071521;28;20039;-52
2023/08/08 01:35:00;;;;;;;11.20;3.97;;;14.00;99.90;;;;;;5072558;28;20580;-54
2023/08/08 01:37:43;;;;;;;7.90;3.78;;;14.00;99.90;;;;;;5073006;28;20540;-52
2023/08/08 01:40:11;;;;;;;8.43;4.13;;;14.00;99.90;;;;;;5069307;28;20302;-54
2023/08/08 01:42:37;;;;;;;4.03;3.63;;;14.00;99.90;;;;;;5072699;28;20043;-55
2023/08/08 01:45:04;;;;;;;6.82;4.03;;;14.00;99.90;;;;;;5072228;28;20063;-51
2023/08/08 01:47:30;;;;;;;7.93;3.10;;;14.00;99.90;;;;;;5067158;28;20040;-54
2023/08/08 01:49:56;;;;;;;;;;;14.10;99.90;;;;;;5072814;28;20040;-54
2023/08/08 01:52:22;;;;;;;14.15;3.92;;;14.10;99.90;;;;;;5072364;28;19916;-55
2023/08/08 01:54:48;;;;;;;8.73;4.03;;;14.10;99.90;;;;;;5071975;28;20397;-53
2023/08/08 01:57:13;;;;;;;8.13;2.92;;;14.10;99.90;;;;;;5072235;28;20032;-52
2023/08/08 01:59:39;;;;;;;11.38;3.20;;;14.10;99.90;;;;;;5072003;28;20033;-52
2023/08/08 02:02:05;;;;;;;8.70;4.07;;;14.20;99.90;;;;;;5072087;28;20036;-52
2023/08/08 02:04:30;;;;;;;11.00;4.30;;;14.10;99.90;;;;;;5072125;28;20041;-58
2023/08/08 02:06:56;;;;;;;7.53;3.80;;;14.20;99.90;;;;;;5071859;28;20051;-54
2023/08/08 02:09:21;;;;;;;10.32;3.97;;;14.20;99.90;;;;;;5071382;28;20438;-56
2023/08/08 02:11:47;;;;;;;8.23;3.85;;;14.20;99.90;;;;;;5071831;28;20791;-54
2023/08/08 02:14:12;;;;;;;6.13;3.83;;;14.20;99.90;;;;;;5071812;28;20127;-54
2023/08/08 02:16:39;;;;;;;11.52;3.85;;;14.20;99.90;;;;;;5069130;28;20040;-54
2023/08/08 02:19:05;;;;;;;13.10;4.15;;;14.20;99.90;;;;;;5071660;28;20519;-51
2023/08/08 02:21:30;;;;;;;12.85;4.20;;;14.20;99.90;;;;;;5069893;28;20036;-53
2023/08/08 02:23:56;;;;;;;11.48;3.22;;;14.20;99.90;;;;;;5070398;28;20095;-56
2023/08/08 02:26:21;;;;;;;8.27;4.15;;;14.20;99.90;;;;;;5070886;28;20102;-55
2023/08/08 02:28:47;;;;;;;8.88;4.63;;;14.20;99.90;;;;;;5071612;28;20119;-53
2023/08/08 02:31:14;;;;;;;8.35;4.55;;;14.20;99.90;;;;;;5071461;28;20550;-52
2023/08/08 02:33:40;;;;;;;15.55;4.32;;;14.20;99.90;;;;;;5087159;28;20063;-57
2023/08/08 02:36:05;;;;;;;8.52;3.80;;;14.20;99.90;;;;;;5071658;28;20029;-53
2023/08/08 02:38:31;;;;;;;10.57;4.20;;;14.20;99.90;;;;;;5071090;28;20032;-55
2023/08/08 02:40:56;;;;;;;12.00;4.22;;;14.30;99.90;;;;;;5071178;28;20462;-54
2023/08/08 02:43:22;;;;;;;11.88;4.68;;;14.30;99.90;;;;;;5070493;28;20060;-55
2023/08/08 02:45:47;;;;;;;8.32;4.63;;;14.30;99.90;;;;;;5071314;28;20094;-52
2023/08/08 02:48:13;;;;;;;11.73;4.53;;;14.30;99.90;;;;;;5065711;28;20116;-56
2023/08/08 02:50:39;;;;;;;10.85;4.20;;;14.30;99.90;;;;;;5070819;28;20111;-53
2023/08/08 02:53:04;;;;;;;13.23;4.22;;;14.30;99.90;;;;;;5070675;28;20406;-55
2023/08/08 02:55:30;;;;;;;13.93;5.65;;;14.30;99.90;;;;;;5069699;28;20040;-52
2023/08/08 02:57:55;;;;;;;10.63;4.38;;;14.30;99.90;;;;;;5070897;28;20246;-52
2023/08/08 03:00:21;;;;;;;10.07;4.45;;;14.30;99.90;;;;;;5070941;28;20033;-55
2023/08/08 03:02:47;;;;;;;14.05;4.30;;;14.30;99.90;;;;;;5071047;28;20044;-53
2023/08/08 03:05:12;;;;;;;11.98;4.93;;;14.30;99.90;;;;;;5070807;28;20028;-56
2023/08/08 03:07:41;;;;;;;15.85;4.22;;;14.30;99.90;;;;;;5086287;28;20048;-53
2023/08/08 03:10:06;;;;;;;11.43;4.40;;;14.30;99.90;;;;;;5068944;28;20049;-55
2023/08/08 03:12:32;;;;;;;11.80;4.50;;;14.30;99.90;;;;;;5070865;28;20043;-53
2023/08/08 03:14:57;;;;;;;9.40;4.68;;;14.30;99.90;;;;;;5070654;28;20044;-55
2023/08/08 03:17:23;;;;;;;13.60;4.10;;;14.30;99.90;;;;;;5070668;28;20159;-57
2023/08/08 03:19:49;;;;;;;15.90;4.90;;;14.30;99.90;;;;;;5070726;28;20036;-55
2023/08/08 03:22:14;;;;;;;10.00;4.57;;;14.30;99.90;;;;;;5070182;28;20551;-54
2023/08/08 03:24:40;;;;;;;8.55;3.92;;;14.30;99.90;;;;;;5070418;28;20040;-54
2023/08/08 03:27:05;;;;;;;17.85;4.38;;;14.30;99.90;;;;;;5070380;28;20043;-55
2023/08/08 03:29:31;;;;;;;6.93;3.70;;;14.30;99.90;;;;;;5070317;28;20121;-55
2023/08/08 03:31:56;;;;;;;6.93;3.85;;;14.20;99.90;;;;;;5070596;28;20059;-57
2023/08/08 03:34:22;;;;;;;8.65;3.95;;;14.20;99.90;;;;;;5070575;28;20468;-52
2023/08/08 03:36:48;;;;;;;6.82;3.40;;;14.20;99.90;;;;;;5069928;28;20028;-52
2023/08/08 03:39:13;;;;;;;12.77;4.85;;;14.20;99.90;;;;;;5070101;28;20558;-56
2023/08/08 03:41:39;;;;;;;11.63;3.75;;;14.20;99.90;;;;;;5070295;28;20032;-52
2023/08/08 03:44:04;;;;;;;10.45;5.07;;;14.20;99.90;;;;;;5070384;28;20043;-54
2023/08/08 03:46:30;;;;;;;8.32;3.55;;;14.20;99.90;;;;;;5070039;28;20032;-56
2023/08/08 03:48:56;;;;;;;9.63;3.75;;;14.20;99.90;;;;;;5069979;28;20194;-57
2023/08/08 03:51:21;;;;;;;16.17;3.50;;;14.20;99.90;;;;;;5069784;28;20040;-54
2023/08/08 03:53:47;;;;;;;11.73;3.67;;;14.20;99.90;;;;;;5064007;28;20044;-52
2023/08/08 03:56:12;;;;;;;9.65;3.45;;;14.10;99.90;;;;;;5069809;28;20040;-56
2023/08/08 03:58:38;;;;;;;11.85;3.75;;;14.10;99.90;;;;;;5069905;28;20465;-52
2023/08/08 04:01:04;;;;;;;9.77;3.63;;;14.10;99.90;;;;;;5069931;28;20098;-55
2023/08/08 04:03:29;;;;;;;14.68;4.03;;;14.10;99.90;;;;;;5070532;28;20040;-54
2023/08/08 04:05:55;;;;;;;10.63;4.35;;;14.00;99.90;;;;;;5069655;28;20076;-53
2023/08/08 04:08:21;;;;;;;9.60;4.10;;;14.00;99.90;;;;;;5069148;28;20373;-54
2023/08/08 04:10:47;;;;;;;8.50;3.90;;;14.00;99.90;;;;;;5069988;28;20040;-53
2023/08/08 04:13:12;;;;;;;12.10;3.75;;;14.00;99.90;;;;;;5068193;28;20120;-53
2023/08/08 04:15:38;;;;;;;8.55;3.45;;;14.00;99.90;;;;;;5070103;28;20170;-54
2023/08/08 04:18:06;;;;;;;10.48;3.90;;;13.90;99.90;;;;;;5069428;28;20032;-54
2023/08/08 04:20:32;;;;;;;13.38;4.30;;;13.90;99.90;;;;;;5068534;28;20401;-55
2023/08/08 04:22:58;;;;;;;8.52;4.00;;;13.90;99.90;;;;;;5069035;28;20044;-52
2023/08/08 04:25:23;;;;;;;11.27;3.60;;;13.90;99.90;;;;;;5069819;28;20048;-54
2023/08/08 04:27:49;;;;;;;12.05;4.47;;;13.90;99.90;;;;;;5069213;28;20054;-52
2023/08/08 04:30:15;;;;;;;6.22;3.83;;;13.90;99.90;;;;;;5069987;28;20121;-52
2023/08/08 04:32:40;;;;;;;18.65;3.38;;;13.90;99.90;;;;;;5069695;28;20520;-53
2023/08/08 04:35:06;;;;;;;12.50;3.63;;;13.90;99.90;;;;;;5069634;28;20084;-57
2023/08/08 04:37:31;;;;;;;11.02;3.50;;;13.90;99.90;;;;;;5069421;28;20036;-53
2023/08/08 04:39:57;;;;;;;12.48;4.15;;;13.80;99.90;;;;;;5069584;28;20233;-55
2023/08/08 04:42:23;;;;;;;8.68;3.88;;;13.90;99.90;;;;;;5068840;28;20055;-52
2023/08/08 04:44:48;;;;;;;11.10;3.60;;;13.90;99.90;;;;;;5069179;28;20117;-54
2023/08/08 04:47:14;;;;;;;8.70;3.95;;;13.90;99.90;;;;;;5069150;28;20040;-54
2023/08/08 04:49:39;;;;;;;9.65;3.05;;;13.90;99.90;;;;;;5069239;28;20044;-52
2023/08/08 04:52:05;;;;;;;11.82;3.00;;;13.90;99.90;;;;;;5069011;28;20036;-54
2023/08/08 04:54:31;;;;;;;6.93;3.08;;;13.90;99.90;;;;;;5063892;28;20102;-53
2023/08/08 04:56:56;;;;;;;6.53;3.10;;;13.90;99.90;;;;;;5069394;28;20066;-55
2023/08/08 04:59:23;;;;;;;9.85;2.67;;;13.90;99.90;;;;;;5068155;28;20072;-52
2023/08/08 05:01:49;;;;;;;6.15;2.33;;;13.90;99.90;;;;;;5066668;28;20033;-52
2023/08/08 05:04:14;;;;;;;9.98;3.25;;;14.00;99.90;;;;;;5068975;28;20115;-55
2023/08/08 05:06:40;;;;;;;6.05;2.53;;;14.00;99.90;;;;;;5070274;28;20052;-55
2023/08/08 05:09:09;;;;;;;13.85;3.10;;;14.00;99.90;;;;;;5072872;28;20299;-53
2023/08/08 05:11:35;;;;;;;5.03;2.17;;;14.10;99.90;;;;;;5068523;28;20090;-54
2023/08/08 05:14:00;;;;;;;11.02;2.45;;;14.10;99.90;;;;;;5072939;28;20037;-55
2023/08/08 05:16:26;;;;;;;16.92;3.47;;;14.10;99.90;;;;;;5073382;28;20063;-54
2023/08/08 05:18:52;;;;;;;7.25;2.33;;;14.20;99.90;;;;;;5071583;28;20156;-53
2023/08/08 05:21:17;;;;;;;5.68;2.40;;;14.20;99.90;;;;;;5072256;28;20044;-54
2023/08/08 05:23:43;;;;;;;9.80;2.30;;;14.30;99.90;;;;;;5073165;28;20097;-54
2023/08/08 05:26:08;;;;;;;4.50;2.35;;;14.40;99.90;;;;;;5072824;28;20064;-54
2023/08/08 05:28:34;;;;;;;5.22;1.85;;;14.50;99.90;;;;;;5072651;28;20048;-53
2023/08/08 05:30:59;;;;;;;12.38;2.40;;;14.60;99.90;;;;;;5072875;28;20036;-55
2023/08/08 05:33:25;;;;;;;10.63;1.65;;;14.60;99.90;;;;;;5073068;28;20123;-54
2023/08/08 05:35:51;;;;;;;5.63;2.20;;;14.70;99.90;;;;;;5072755;28;20776;-57
2023/08/08 05:38:16;;;;;;;8.05;1.73;;;14.80;99.90;;;;;;5072652;28;20059;-52
2023/08/08 05:40:42;;;;;;;3.90;1.15;;;14.80;99.90;;;;;;5072231;28;20481;-52
2023/08/08 05:43:08;;;;;;;7.97;2.00;;;14.90;99.90;;;;;;5072193;28;20039;-54
2023/08/08 05:45:33;;;;;;;6.30;1.70;;;14.90;99.90;;;;;;5072717;28;20090;-56
2023/08/08 05:48:00;;;;;;;6.30;1.58;;;14.90;99.90;;;;;;5072150;28;20068;-52
2023/08/08 05:50:27;;;;;;;9.50;1.50;;;14.90;99.90;;;;;;5072100;28;20110;-54
2023/08/08 05:52:53;;;;;;;7.65;1.55;;;14.80;99.90;;;;;;5072018;28;20041;-54
2023/08/08 05:55:19;;;;;;;5.50;1.60;;;14.90;99.90;;;;;;5066651;28;20036;-53
2023/08/08 05:57:44;;;;;;;2.75;1.05;;;14.90;99.90;;;;;;5071100;28;20064;-53
2023/08/08 06:00:11;;;;;;;6.32;1.33;;;14.80;99.90;;;;;;5071802;28;20505;-53
2023/08/08 06:02:37;;;;;;;3.78;1.08;;;14.80;99.90;;;;;;5069776;28;20082;-55
2023/08/08 06:05:04;;;;;;;4.13;1.02;;;14.80;99.90;;;;;;5071156;28;20060;-52
2023/08/08 06:07:29;;;;;;;5.93;1.77;;;14.80;99.90;;;;;;5072148;28;20044;-55
2023/08/08 06:09:55;;;;;;;8.68;1.42;;;14.80;99.90;;;;;;5066075;28;20102;-58
2023/08/08 06:12:20;;;;;;;5.35;1.25;;;14.80;99.90;;;;;;5071848;28;20551;-57
2023/08/08 06:14:47;;;;;;;7.22;1.52;;;14.80;99.90;;;;;;5071703;28;20056;-53
2023/08/08 06:17:12;;;;;;;4.95;1.10;;;14.80;99.90;;;;;;5059794;28;20389;-57
2023/08/08 06:19:38;;;;;;;11.50;1.38;;;14.80;99.90;;;;;;5062232;28;20085;-54
2023/08/08 06:22:03;;;;;;;8.90;1.40;;;14.70;99.90;;;;;;5064879;28;20556;-57
2023/08/08 06:24:29;;;;;;;7.35;2.15;;;14.80;99.90;;;;;;5064042;28;20098;-55
2023/08/08 06:26:54;;;;;;;4.53;1.23;;;14.70;99.90;;;;;;5060365;28;20043;-55
2023/08/08 06:29:20;;;;;;;5.85;1.40;;;14.80;99.90;;;;;;5058147;28;20457;-52
2023/08/08 06:31:45;;;;;;;4.72;1.00;;;14.90;99.90;;;;;;5063627;28;20037;-57
2023/08/08 06:34:11;;;;;;;8.45;1.65;;;14.90;99.90;;;;;;5057549;28;20032;-52
2023/08/08 06:36:37;;;;;;;4.10;1.25;;;15.10;99.90;;;;;;5064593;28;20046;-56
2023/08/08 06:39:03;;;;;;;4.15;1.20;;;15.20;99.90;;;;;;5067748;28;20032;-55
2023/08/08 06:41:28;;;;;;;5.57;1.05;;;15.40;99.90;;;;;;5071021;28;20032;-54
2023/08/08 06:43:54;;;;;;;6.95;1.13;;;15.50;99.90;;;;;;5071237;28;20036;-54
2023/08/08 06:46:20;;;;;;;8.23;0.63;;;15.50;99.90;;;;;;5071429;28;20628;-52
2023/08/08 06:48:47;;;;;;;6.00;0.93;;;15.60;99.90;;;;;;5069014;28;20036;-52
2023/08/08 06:51:13;;;;;;;8.38;1.63;;;15.60;99.90;;;;;;5069955;28;20115;-55
2023/08/08 06:53:38;;;;;;;7.97;1.10;;;15.70;99.90;;;;;;5063323;28;20644;-55
2023/08/08 06:56:04;;;;;;;5.38;0.95;;;15.80;99.90;;;;;;5065511;28;20075;-56
2023/08/08 06:58:30;;;;;;;8.75;0.95;;;16.00;99.90;;;;;;5070510;28;20028;-53
2023/08/08 07:00:55;;;;;;;5.28;0.90;;;16.10;99.90;;;;;;5070757;28;20122;-57
2023/08/08 07:03:21;;;;;;;7.50;0.70;;;16.10;99.90;;;;;;5070410;28;20037;-53
2023/08/08 07:05:51;;;;;;;4.85;0.88;;;16.20;99.90;;;;;;5071112;28;20109;-55
2023/08/08 07:08:17;;;;;;;7.90;1.10;;;16.30;99.90;;;;;;5066030;28;20068;-52
2023/08/08 07:10:43;;;;;;;3.22;0.30;;;16.40;99.90;;;;;;5069726;28;20117;-53
2023/08/08 07:13:08;;;;;;;5.07;0.70;;;16.50;99.90;;;;;;5066172;28;20115;-56
2023/08/08 07:15:34;;;;;;;8.88;0.73;;;16.50;99.90;;;;;;5065772;28;20478;-55
2023/08/08 07:18:00;;;;;;;3.83;0.40;;;16.60;99.90;;;;;;5067444;28;20106;-52
2023/08/08 07:20:25;;;;;;;5.32;0.40;;;16.70;99.90;;;;;;5068717;28;20028;-55
2023/08/08 07:22:51;;;;;;;6.55;0.88;;;16.70;99.90;;;;;;5062920;28;20036;-58
2023/08/08 07:25:16;;;;;;;3.17;0.52;;;16.80;99.90;;;;;;5065699;28;20501;-58
2023/08/08 07:27:42;;;;;;;4.20;0.68;;;16.80;99.90;;;;;;5069715;28;20116;-58
2023/08/08 07:30:08;;;;;;;3.33;0.50;;;16.90;99.90;;;;;;5075724;28;20044;-54
2023/08/08 07:32:34;;;;;;;;;;;16.90;99.90;;;;;;5074009;28;20314;-54
2023/08/08 07:35:02;;;;;;;4.28;0.47;;;17.00;99.90;;;;;;5068033;28;20200;-55
2023/08/08 07:37:28;;;;;;;3.72;0.30;;;17.00;99.90;;;;;;5078309;28;20040;-56
2023/08/08 07:39:53;;;;;;;6.25;0.73;;;17.10;99.90;;;;;;5076661;28;20027;-57
2023/08/08 07:42:19;;;;;;;6.03;0.52;;;17.10;99.90;;;;;;5070884;28;20040;-58
2023/08/08 07:44:44;;;;;;;11.52;0.65;;;17.20;99.90;;;;;;5074536;28;20151;-56
2023/08/08 07:47:10;;;;;;;3.42;0.75;;;17.20;99.90;;;;;;5078486;28;20040;-57
2023/08/08 07:49:35;;;;;;;3.83;0.43;;;17.30;99.90;;;;;;5072094;28;20517;-58
2023/08/08 07:52:01;;;;;;;9.52;0.60;;;17.40;99.90;;;;;;5074741;28;20128;-58
2023/08/08 07:54:26;;;;;;;3.53;0.40;;;17.40;99.90;;;;;;5075181;28;20040;-56
2023/08/08 07:56:52;;;;;;;2.47;0.50;;;17.50;99.90;;;;;;5075657;28;20024;-55
2023/08/08 07:59:18;;;;;;;5.35;0.43;;;17.50;99.90;;;;;;5071303;28;20040;-53
2023/08/08 08:01:43;;;;;;;6.47;0.60;;;17.50;99.90;;;;;;5077047;28;20055;-54
2023/08/08 08:04:09;;;;;;;2.92;0.40;;;17.50;99.90;;;;;;5077072;28;20048;-56
2023/08/08 08:06:34;;;;;;;5.18;0.50;;;17.50;99.90;;;;;;5074524;28;20040;-56
2023/08/08 08:09:00;;;;;;;4.72;0.50;;;17.50;99.90;;;;;;5065798;28;20103;-55
2023/08/08 08:11:26;;;;;;;4.00;0.30;;;17.60;99.90;;;;;;5073403;28;20032;-56
2023/08/08 08:13:51;;;;;;;5.50;0.45;;;17.60;99.90;;;;;;5072209;28;20059;-53
2023/08/08 08:16:17;;;;;;;9.68;0.35;;;17.70;99.90;;;;;;5066845;28;20075;-58
2023/08/08 08:18:42;;;;;;;2.33;0.65;;;17.80;99.90;;;;;;5069386;28;20089;-52
2023/08/08 08:21:08;;;;;;;5.15;0.65;;;18.00;99.90;;;;;;5079763;28;20041;-55
2023/08/08 08:23:34;;;;;;;3.60;0.90;;;18.20;99.90;;;;;;5068409;28;20572;-55
2023/08/08 08:26:00;;;;;;;;;;;18.20;99.90;;;;;;5067772;28;20030;-54
2023/08/08 08:28:26;;;;;;;7.40;0.32;;;18.10;99.90;;;;;;5059220;28;20669;-59
2023/08/08 08:30:52;;;;;;;4.32;0.43;;;18.00;99.90;;;;;;5067586;28;20111;-56
2023/08/08 08:33:18;;;;;;;3.97;0.50;;;17.90;99.90;;;;;;5060939;28;20533;-56
2023/08/08 08:35:43;;;;;;;2.05;0.20;;;17.80;99.90;;;;;;5067687;28;20045;-56
2023/08/08 08:38:09;;;;;;;1.70;0.22;;;17.70;99.90;;;;;;5073670;28;20040;-56
2023/08/08 08:40:37;;;;;;;2.15;0.20;;;17.80;99.90;;;;;;5066119;28;20028;-55
2023/08/08 08:43:05;;;;;;;2.25;0.30;;;17.80;99.90;;;;;;5072861;28;20062;-56
2023/08/08 08:45:31;;;;;;;3.05;0.40;;;17.80;99.90;;;;;;5079714;28;20050;-55
2023/08/08 08:47:58;;;;;;;4.22;0.40;;;17.70;99.90;;;;;;5075471;28;20387;-55
2023/08/08 08:50:27;;;;;;;1.67;0.25;;;17.80;99.90;;;;;;5073998;28;20044;-58
2023/08/08 08:52:55;;;;;;;2.72;0.30;;;17.80;99.90;;;;;;5075966;28;20167;-57
2023/08/08 08:55:21;;;;;;;3.67;0.30;;;17.80;99.90;;;;;;5071437;28;20040;-55
2023/08/08 08:57:47;;;;;;;;;;;17.90;99.90;;;;;;5079125;28;20048;-56
2023/08/08 09:00:13;;;;;;;2.08;0.30;;;18.00;99.90;;;;;;5071092;28;19922;-58
2023/08/08 09:02:39;;;;;;;2.22;0.30;;;18.00;99.90;;;;;;5072319;28;20067;-56
2023/08/08 09:05:05;;;;;;;6.32;0.68;;;18.00;99.90;;;;;;5075559;28;20043;-57
2023/08/08 09:07:32;;;;;;;5.35;0.50;;;17.90;99.90;;;;;;5074862;28;20251;-56
2023/08/08 09:09:58;;;;;;;2.88;0.30;;;17.90;99.90;;;;;;5073952;28;20143;-56
2023/08/08 09:12:24;;;;;;;2.90;0.50;;;18.00;99.90;;;;;;5074685;28;20128;-58
2023/08/08 09:14:56;;;;;;;2.78;0.30;;;18.00;99.90;;;;;;5070353;28;20028;-58
2023/08/08 09:17:24;;;;;;;2.30;0.32;;;18.00;99.90;;;;;;5063878;28;20123;-56
2023/08/08 09:19:50;;;;;;;3.30;0.60;;;18.10;99.90;;;;;;5071786;28;20063;-57
2023/08/08 09:22:15;;;;;;;1.35;0.40;;;18.00;99.90;;;;;;5070966;28;20484;-56
2023/08/08 09:24:41;;;;;;;5.60;0.43;;;18.00;99.90;;;;;;5077761;28;20044;-57
2023/08/08 09:27:08;;;;;;;3.28;0.20;;;18.00;99.90;;;;;;5070890;28;20535;-56
2023/08/08 09:29:34;;;;;;;3.08;0.80;;;17.90;99.90;;;;;;5072006;28;20048;-56
2023/08/08 09:32:03;;;;;;;3.45;0.50;;;17.90;99.90;;;;;;5071383;28;20060;-58
2023/08/08 09:34:29;;;;;;;7.25;0.65;;;17.90;99.90;;;;;;5068563;28;20409;-57
2023/08/08 09:36:55;;;;;;;3.33;0.30;;;17.90;99.90;;;;;;5065130;28;20036;-58
2023/08/08 09:39:21;;;;;;;4.85;0.40;;;17.90;99.90;;;;;;5073476;28;20040;-57
2023/08/08 09:41:47;;;;;;;3.72;0.30;;;17.90;99.90;;;;;;5076048;28;20040;-57
2023/08/08 09:44:12;;;;;;;2.22;0.20;;;17.90;99.90;;;;;;5067169;28;20258;-58
2023/08/08 09:46:39;;;;;;;3.08;0.20;;;17.90;99.90;;;;;;5066323;28;20397;-57
2023/08/08 09:49:06;;;;;;;6.45;0.82;;;18.00;99.90;;;;;;5073529;28;20132;-58
2023/08/08 09:51:33;;;;;;;1.80;0.40;;;17.90;99.90;;;;;;5071992;28;20295;-57
2023/08/08 09:53:59;;;;;;;4.65;0.30;;;17.70;99.90;;;;;;5070924;28;20516;-59
2023/08/08 09:56:25;;;;;;;2.00;0.30;;;17.50;99.90;;;;;;5069106;28;20032;-57
2023/08/08 09:58:51;;;;;;;;;;;17.40;99.90;;;;;;5069243;28;20044;-58
2023/08/08 10:01:21;;;;;;;3.05;0.38;;;17.20;99.90;;;;;;5069299;28;19920;-57
2023/08/08 10:03:48;;;;;;;4.03;0.32;;;17.10;99.90;;;;;;5064169;28;20098;-58
2023/08/08 10:06:14;;;;;;;4.00;0.35;;;17.00;99.90;;;;;;5066383;28;20058;-58
2023/08/08 10:08:40;;;;;;;3.70;0.40;;;17.00;99.90;;;;;;5058368;28;20048;-57
2023/08/08 10:11:07;;;;;;;;;;;17.20;99.90;;;;;;5066821;28;20040;-57
2023/08/08 10:13:35;;;;;;;2.10;0.30;;;17.40;99.90;;;;;;5065885;28;20298;-56
2023/08/08 10:16:07;;;;;;;3.50;0.38;;;17.40;99.90;;;;;;5065029;28;20048;-58
2023/08/08 10:18:33;;;;;;;7.60;0.30;;;17.40;99.90;;;;;;5058630;28;20047;-57
2023/08/08 10:20:59;;;;;;;4.75;0.25;;;17.30;99.90;;;;;;5067323;28;20040;-58
2023/08/08 10:23:25;;;;;;;7.65;0.73;;;17.20;99.90;;;;;;5066465;28;20036;-57
2023/08/08 10:25:52;;;;;;;6.22;0.60;;;17.20;99.90;;;;;;5067027;28;20135;-56
2023/08/08 10:28:22;;;;;;;1.38;0.30;;;17.20;99.90;;;;;;5066906;28;20037;-57
2023/08/08 10:31:02;;;;;;;5.50;0.30;;;17.10;99.90;;;;;;5066521;28;20512;-58
2023/08/08 10:33:39;;;;;;;2.67;0.40;;;17.10;99.90;;;;;;5067078;28;20102;-57
2023/08/08 10:36:07;;;;;;;3.72;0.47;;;17.10;99.90;;;;;;5066938;28;20032;-56
2023/08/08 10:38:39;;;;;;;3.53;0.40;;;17.10;99.90;;;;;;5063150;28;20072;-55
2023/08/08 10:41:08;;;;;;;1.95;0.30;;;17.20;99.90;;;;;;5067612;28;20036;-56
2023/08/08 10:43:34;;;;;;;3.90;0.40;;;17.30;99.90;;;;;;5066623;28;20439;-58
2023/08/08 10:46:04;;;;;;;5.32;0.40;;;17.30;99.90;;;;;;5065721;28;20040;-57
2023/08/08 10:48:30;;;;;;;4.15;0.60;;;17.20;99.90;;;;;;5066675;28;20485;-58
2023/08/08 10:50:58;;;;;;;2.00;0.30;;;17.10;99.90;;;;;;5066543;28;20076;-57
2023/08/08 10:53:28;;;;;;;3.03;0.68;;;17.00;99.90;;;;;;5067005;28;20028;-58
2023/08/08 10:56:04;;;;;;;5.85;1.05;;;17.10;99.90;;;;;;5067268;28;20067;-56
2023/08/08 10:58:41;;;;;;;7.38;0.80;;;17.20;99.90;;;;;;5064101;28;20045;-57
2023/08/08 11:01:12;;;;;;;4.85;0.40;;;17.20;99.90;;;;;;5066022;28;20063;-57
2023/08/08 11:03:39;;;;;;;2.78;0.40;;;17.30;99.90;;;;;;5065824;28;20028;-55
2023/08/08 11:06:09;;;;;;;5.35;0.50;;;17.30;99.90;;;;;;5066973;28;20382;-57
2023/08/08 11:08:38;;;;;;;3.28;0.40;;;17.40;99.90;;;;;;5066590;28;20060;-57
2023/08/08 11:11:06;;;;;;;3.72;0.30;;;17.50;99.90;;;;;;5065584;28;20032;-58
2023/08/08 11:13:33;;;;;;;3.40;0.30;;;17.70;99.90;;;;;;5064468;28;20024;-57
2023/08/08 11:15:58;;;;;;;;;;;18.00;99.90;;;;;;5065820;28;20067;-57
2023/08/08 11:18:25;;;;;;;3.00;0.60;;;18.10;99.90;;;;;;5061291;28;20405;-58
2023/08/08 11:20:51;;;;;;;3.78;0.35;;;18.30;99.90;;;;;;5053190;28;20410;-58
2023/08/08 11:23:18;;;;;;;3.35;0.63;;;18.60;99.90;;;;;;5058134;28;20032;-56
2023/08/08 11:25:45;;;;;;;3.10;0.22;;;18.70;99.90;;;;;;5061485;28;20048;-58
2023/08/08 11:28:11;;;;;;;4.50;0.60;;;18.80;99.90;;;;;;5059224;28;20456;-57
2023/08/08 11:30:43;;;;;;;2.05;0.45;;;18.70;99.90;;;;;;5065067;28;20068;-58
2023/08/08 11:33:09;;;;;;;3.20;0.50;;;18.60;99.90;;;;;;5061174;28;20036;-57
2023/08/08 11:35:35;;;;;;;2.63;0.30;;;18.40;99.90;;;;;;5063044;28;20508;-55
2023/08/08 11:38:02;;;;;;;2.45;0.50;;;18.20;99.90;;;;;;5064805;28;20036;-58
2023/08/08 11:40:29;;;;;;;1.80;0.30;;;18.10;99.90;;;;;;5062160;28;20496;-57
2023/08/08 11:42:56;;;;;;;4.68;0.20;;;17.90;99.90;;;;;;5064317;28;20032;-57
2023/08/08 11:45:23;;;;;;;5.65;0.40;;;17.90;99.90;;;;;;5066034;28;20039;-57
2023/08/08 11:47:49;;;;;;;3.25;0.40;;;18.00;99.90;;;;;;5065760;28;20041;-57
2023/08/08 11:50:15;;;;;;;5.70;0.30;;;18.20;99.90;;;;;;5065275;28;20407;-58
2023/08/08 11:52:45;;;;;;;4.03;0.60;;;18.40;99.90;;;;;;5065359;28;20034;-57
2023/08/08 11:55:12;;;;;;;2.63;0.63;;;18.30;99.90;;;;;;5063385;28;20126;-58
2023/08/08 11:57:39;;;;;;;4.97;0.22;;;18.10;99.90;;;;;;5064519;28;20805;-53
2023/08/08 12:00:07;;;;;;;3.15;0.22;;;17.90;99.90;;;;;;5060356;28;20035;-57
2023/08/08 12:02:33;;;;;;;2.58;0.20;;;17.60;99.90;;;;;;5064753;28;20112;-57
2023/08/08 12:05:13;;;;;;;4.38;0.32;;;17.30;99.90;;;;;;5057589;28;20040;-53
2023/08/08 12:07:41;;;;;;;2.58;0.32;;;17.10;99.90;;;;;;5060949;28;20109;-53
2023/08/08 12:10:17;;;;;;;1.52;0.40;;;16.90;99.90;;;;;;5059067;28;20044;-56
2023/08/08 12:12:44;;;;;;;1.42;0.30;;;16.90;99.90;;;;;;5065473;28;20039;-56
2023/08/08 12:15:11;;;;;;;3.03;0.40;;;17.10;99.90;;;;;;5062788;28;20036;-55
2023/08/08 12:17:37;;;;;;;4.28;0.55;;;17.30;99.90;;;;;;5061149;28;20036;-53
2023/08/08 12:20:05;;;;;;;3.55;0.95;;;17.60;99.90;;;;;;5061857;28;20112;-55
2023/08/08 12:22:31;;;;;;;4.05;0.40;;;17.70;99.90;;;;;;5062120;28;20036;-56
2023/08/08 12:24:56;;;;;;;;;;;17.90;99.90;;;;;;5061025;28;20044;-54
2023/08/08 12:27:22;;;;;;;3.95;0.50;;;18.10;99.90;;;;;;5064390;28;20377;-56
2023/08/08 12:29:47;;;;;;;2.03;0.70;;;18.30;99.90;;;;;;5064405;28;20043;-57
2023/08/08 12:32:13;;;;;;;2.22;0.38;;;18.30;99.90;;;;;;5058805;28;20972;-57
2023/08/08 12:34:39;;;;;;;3.25;0.90;;;18.40;99.90;;;;;;5063949;28;20033;-57
2023/08/08 12:37:04;;;;;;;5.75;0.63;;;18.40;99.90;;;;;;5068898;28;20105;-53
2023/08/08 12:39:30;;;;;;;4.97;0.50;;;18.30;99.90;;;;;;5064080;28;20044;-56
2023/08/08 12:41:56;;;;;;;3.67;0.55;;;18.10;99.90;;;;;;5063730;28;20047;-55
2023/08/08 12:44:22;;;;;;;1.30;0.30;;;17.90;99.90;;;;;;5064355;28;20594;-57